KNSE/NSE METAR and TAF weather

Enter ICAO airport designator
Station Type Date Time Source
KNSE METAR 2023/10/01 01:56 UTC NOAA

KNSE 010156Z AUTO VRB03KT 10SM CLR 29/16 A3006 RMK AO2 SLP165 T02890156 $


Station Type Date Time Source
KNSE Decoded METAR 2023/10/01 01:56 UTC NOAA

MILTON WHITING FIELD (NORTH), FL, United States (KNSE) 30-44N 87-01W 60M
Sep 30, 2023 - 09:56 PM EDT / 2023.10.01 0156 UTC
Wind: Variable at 3 MPH (3 KT):0
Visibility: 10 mile(s):0
Sky conditions: clear
Temperature: 84.0 F (28.9 C)
Dew Point: 60.1 F (15.6 C)
Relative Humidity: 44%
Pressure (altimeter): 30.06 in. Hg (1017 hPa)
ob: KNSE 010156Z AUTO VRB03KT 10SM CLR 29/16 A3006 RMK AO2 SLP165 T02890156
cycle: 2

Station Type Date Time Source
KNSE TAF 2023/09/30 23:03 UTC NOAA

TAF KNSE 3023/0123 05006G10KT 9999 SKC QNH2999INS
BECMG 0113/0115 05008G15KT 9999 FEW030 QNH3005INS AUTOMATED SENSOR METWATCH 3023 TIL 0122 TX32/0120Z TN20/0110Z FN00262

Example: see airport list